sensor_id;sensor_type;location;lat;lon;timestamp;P1;durP1;ratioP1;P2;durP2;ratioP2
58015;SDS011;43809;52.110;20.964;2023-03-21T00:01:04;24.83;;;11.98;;
58015;SDS011;43809;52.110;20.964;2023-03-21T00:03:05;24.23;;;12.52;;
58015;SDS011;43809;52.110;20.964;2023-03-21T00:05:06;28.00;;;13.60;;
58015;SDS011;43809;52.110;20.964;2023-03-21T00:07:06;29.17;;;14.25;;
58015;SDS011;43809;52.110;20.964;2023-03-21T00:09:06;29.77;;;14.40;;
58015;SDS011;43809;52.110;20.964;2023-03-21T00:11:08;28.17;;;14.43;;
58015;SDS011;43809;52.110;20.964;2023-03-21T00:13:09;23.73;;;12.00;;
58015;SDS011;43809;52.110;20.964;2023-03-21T00:15:11;25.58;;;12.95;;
58015;SDS011;43809;52.110;20.964;2023-03-21T00:17:12;28.35;;;13.88;;
58015;SDS011;43809;52.110;20.964;2023-03-21T00:19:15;25.70;;;12.75;;
58015;SDS011;43809;52.110;20.964;2023-03-21T00:21:16;30.77;;;14.52;;
58015;SDS011;43809;52.110;20.964;2023-03-21T00:23:17;28.90;;;13.77;;
58015;SDS011;43809;52.110;20.964;2023-03-21T00:25:17;28.67;;;13.75;;
58015;SDS011;43809;52.110;20.964;2023-03-21T00:27:17;36.80;;;16.95;;
58015;SDS011;43809;52.110;20.964;2023-03-21T00:29:21;35.92;;;16.25;;
58015;SDS011;43809;52.110;20.964;2023-03-21T00:31:21;36.85;;;16.35;;
58015;SDS011;43809;52.110;20.964;2023-03-21T00:33:21;36.83;;;17.63;;
58015;SDS011;43809;52.110;20.964;2023-03-21T00:35:21;32.35;;;15.93;;
58015;SDS011;43809;52.110;20.964;2023-03-21T00:37:21;39.45;;;16.50;;
58015;SDS011;43809;52.110;20.964;2023-03-21T00:39:22;30.05;;;15.07;;
58015;SDS011;43809;52.110;20.964;2023-03-21T00:41:22;33.25;;;15.77;;
58015;SDS011;43809;52.110;20.964;2023-03-21T00:43:22;33.28;;;15.15;;
58015;SDS011;43809;52.110;20.964;2023-03-21T00:45:29;32.75;;;15.32;;
58015;SDS011;43809;52.110;20.964;2023-03-21T00:47:30;37.83;;;17.77;;
58015;SDS011;43809;52.110;20.964;2023-03-21T00:49:31;29.33;;;15.35;;
58015;SDS011;43809;52.110;20.964;2023-03-21T00:51:34;34.70;;;15.45;;
58015;SDS011;43809;52.110;20.964;2023-03-21T00:53:34;33.50;;;15.48;;
58015;SDS011;43809;52.110;20.964;2023-03-21T00:55:34;41.05;;;17.80;;
58015;SDS011;43809;52.110;20.964;2023-03-21T00:57:35;39.13;;;17.80;;
58015;SDS011;43809;52.110;20.964;2023-03-21T00:59:35;37.92;;;16.48;;
58015;SDS011;43809;52.110;20.964;2023-03-21T01:01:35;41.30;;;19.27;;
58015;SDS011;43809;52.110;20.964;2023-03-21T01:03:35;39.50;;;18.27;;
58015;SDS011;43809;52.110;20.964;2023-03-21T01:05:43;37.90;;;18.02;;
58015;SDS011;43809;52.110;20.964;2023-03-21T01:08:02;43.92;;;18.20;;
58015;SDS011;43809;52.110;20.964;2023-03-21T01:10:02;33.08;;;16.50;;
58015;SDS011;43809;52.110;20.964;2023-03-21T01:12:03;35.72;;;17.17;;
58015;SDS011;43809;52.110;20.964;2023-03-21T01:14:04;33.00;;;15.38;;
58015;SDS011;43809;52.110;20.964;2023-03-21T01:16:05;34.25;;;16.65;;
58015;SDS011;43809;52.110;20.964;2023-03-21T01:18:05;38.50;;;18.20;;
58015;SDS011;43809;52.110;20.964;2023-03-21T01:20:06;38.58;;;16.55;;
58015;SDS011;43809;52.110;20.964;2023-03-21T01:22:06;35.95;;;15.85;;
58015;SDS011;43809;52.110;20.964;2023-03-21T01:24:07;41.65;;;18.27;;
58015;SDS011;43809;52.110;20.964;2023-03-21T01:26:08;35.65;;;16.20;;
58015;SDS011;43809;52.110;20.964;2023-03-21T01:28:09;34.33;;;15.80;;
58015;SDS011;43809;52.110;20.964;2023-03-21T01:30:10;36.38;;;15.50;;
58015;SDS011;43809;52.110;20.964;2023-03-21T01:32:10;32.78;;;15.52;;
58015;SDS011;43809;52.110;20.964;2023-03-21T01:34:10;34.25;;;15.23;;
58015;SDS011;43809;52.110;20.964;2023-03-21T01:36:15;32.83;;;15.75;;
58015;SDS011;43809;52.110;20.964;2023-03-21T01:38:16;30.23;;;14.57;;
58015;SDS011;43809;52.110;20.964;2023-03-21T01:40:19;36.38;;;15.27;;
58015;SDS011;43809;52.110;20.964;2023-03-21T01:42:20;35.15;;;16.55;;
58015;SDS011;43809;52.110;20.964;2023-03-21T01:44:20;33.17;;;15.18;;
58015;SDS011;43809;52.110;20.964;2023-03-21T01:46:24;29.92;;;14.40;;
58015;SDS011;43809;52.110;20.964;2023-03-21T01:48:26;26.23;;;12.73;;
58015;SDS011;43809;52.110;20.964;2023-03-21T01:50:27;27.30;;;13.88;;
58015;SDS011;43809;52.110;20.964;2023-03-21T01:52:30;27.33;;;12.63;;
58015;SDS011;43809;52.110;20.964;2023-03-21T01:54:33;28.00;;;13.02;;
58015;SDS011;43809;52.110;20.964;2023-03-21T01:56:34;23.90;;;11.77;;
58015;SDS011;43809;52.110;20.964;2023-03-21T01:58:36;23.63;;;12.57;;
58015;SDS011;43809;52.110;20.964;2023-03-21T02:00:37;31.08;;;12.70;;
58015;SDS011;43809;52.110;20.964;2023-03-21T02:02:38;23.05;;;12.07;;
58015;SDS011;43809;52.110;20.964;2023-03-21T02:04:49;30.87;;;13.20;;
58015;SDS011;43809;52.110;20.964;2023-03-21T02:06:56;24.80;;;11.63;;
58015;SDS011;43809;52.110;20.964;2023-03-21T02:09:02;28.05;;;13.13;;
58015;SDS011;43809;52.110;20.964;2023-03-21T02:11:04;25.58;;;11.93;;
58015;SDS011;43809;52.110;20.964;2023-03-21T02:13:04;29.92;;;13.23;;
58015;SDS011;43809;52.110;20.964;2023-03-21T02:15:09;25.88;;;11.90;;
58015;SDS011;43809;52.110;20.964;2023-03-21T02:19:17;24.50;;;12.13;;
58015;SDS011;43809;52.110;20.964;2023-03-21T02:23:40;26.83;;;11.77;;
58015;SDS011;43809;52.110;20.964;2023-03-21T02:28:03;24.38;;;11.65;;
58015;SDS011;43809;52.110;20.964;2023-03-21T02:45:18;29.48;;;13.30;;
58015;SDS011;43809;52.110;20.964;2023-03-21T02:51:22;35.53;;;17.08;;
58015;SDS011;43809;52.110;20.964;2023-03-21T02:53:32;34.67;;;15.70;;
58015;SDS011;43809;52.110;20.964;2023-03-21T02:55:33;30.67;;;15.20;;
58015;SDS011;43809;52.110;20.964;2023-03-21T02:57:34;30.83;;;15.17;;
58015;SDS011;43809;52.110;20.964;2023-03-21T02:59:35;30.63;;;15.82;;
58015;SDS011;43809;52.110;20.964;2023-03-21T03:01:35;36.83;;;17.23;;
58015;SDS011;43809;52.110;20.964;2023-03-21T03:03:35;33.97;;;17.63;;
58015;SDS011;43809;52.110;20.964;2023-03-21T03:05:48;32.08;;;15.60;;
58015;SDS011;43809;52.110;20.964;2023-03-21T03:20:34;32.55;;;15.07;;
58015;SDS011;43809;52.110;20.964;2023-03-21T03:22:59;32.75;;;16.33;;
58015;SDS011;43809;52.110;20.964;2023-03-21T03:24:58;33.35;;;16.45;;
58015;SDS011;43809;52.110;20.964;2023-03-21T03:27:03;37.22;;;17.52;;
58015;SDS011;43809;52.110;20.964;2023-03-21T03:29:06;31.98;;;15.25;;
58015;SDS011;43809;52.110;20.964;2023-03-21T03:31:07;42.07;;;18.57;;
58015;SDS011;43809;52.110;20.964;2023-03-21T03:33:11;35.63;;;16.67;;
58015;SDS011;43809;52.110;20.964;2023-03-21T03:35:17;39.08;;;19.15;;
58015;SDS011;43809;52.110;20.964;2023-03-21T03:37:19;34.73;;;17.17;;
58015;SDS011;43809;52.110;20.964;2023-03-21T03:39:21;39.83;;;18.50;;
58015;SDS011;43809;52.110;20.964;2023-03-21T03:41:26;39.92;;;19.25;;
58015;SDS011;43809;52.110;20.964;2023-03-21T03:43:38;35.85;;;17.33;;
58015;SDS011;43809;52.110;20.964;2023-03-21T03:45:48;32.40;;;16.48;;
58015;SDS011;43809;52.110;20.964;2023-03-21T03:49:56;34.65;;;16.05;;
58015;SDS011;43809;52.110;20.964;2023-03-21T03:52:00;29.52;;;15.68;;
58015;SDS011;43809;52.110;20.964;2023-03-21T03:54:02;35.83;;;15.98;;
58015;SDS011;43809;52.110;20.964;2023-03-21T03:56:04;34.45;;;16.75;;
58015;SDS011;43809;52.110;20.964;2023-03-21T03:58:06;33.13;;;15.75;;
58015;SDS011;43809;52.110;20.964;2023-03-21T04:00:06;34.85;;;16.40;;
58015;SDS011;43809;52.110;20.964;2023-03-21T04:02:11;34.63;;;15.98;;
58015;SDS011;43809;52.110;20.964;2023-03-21T04:04:11;30.15;;;14.65;;
58015;SDS011;43809;52.110;20.964;2023-03-21T04:06:16;31.30;;;15.85;;
58015;SDS011;43809;52.110;20.964;2023-03-21T04:08:16;30.95;;;15.50;;
58015;SDS011;43809;52.110;20.964;2023-03-21T04:10:18;35.30;;;17.00;;
58015;SDS011;43809;52.110;20.964;2023-03-21T04:12:19;29.42;;;15.25;;
58015;SDS011;43809;52.110;20.964;2023-03-21T04:14:19;29.65;;;15.52;;
58015;SDS011;43809;52.110;20.964;2023-03-21T04:16:19;29.33;;;14.65;;
58015;SDS011;43809;52.110;20.964;2023-03-21T04:18:21;28.38;;;13.57;;
58015;SDS011;43809;52.110;20.964;2023-03-21T04:22:22;28.20;;;13.45;;
58015;SDS011;43809;52.110;20.964;2023-03-21T04:24:23;25.63;;;13.93;;
58015;SDS011;43809;52.110;20.964;2023-03-21T04:26:23;30.70;;;14.85;;
58015;SDS011;43809;52.110;20.964;2023-03-21T04:28:23;29.90;;;14.75;;
58015;SDS011;43809;52.110;20.964;2023-03-21T04:30:23;30.33;;;14.57;;
58015;SDS011;43809;52.110;20.964;2023-03-21T04:32:24;26.55;;;13.25;;
58015;SDS011;43809;52.110;20.964;2023-03-21T04:34:25;28.38;;;13.95;;
58015;SDS011;43809;52.110;20.964;2023-03-21T04:36:27;31.92;;;14.88;;
58015;SDS011;43809;52.110;20.964;2023-03-21T04:40:29;29.10;;;14.07;;
58015;SDS011;43809;52.110;20.964;2023-03-21T04:42:30;27.00;;;13.70;;
58015;SDS011;43809;52.110;20.964;2023-03-21T04:44:30;24.80;;;13.90;;
58015;SDS011;43809;52.110;20.964;2023-03-21T04:46:30;24.67;;;13.27;;
58015;SDS011;43809;52.110;20.964;2023-03-21T04:48:30;24.35;;;13.40;;
58015;SDS011;43809;52.110;20.964;2023-03-21T04:50:30;27.55;;;14.35;;
58015;SDS011;43809;52.110;20.964;2023-03-21T04:52:31;25.10;;;13.57;;
58015;SDS011;43809;52.110;20.964;2023-03-21T04:54:31;23.80;;;12.65;;
58015;SDS011;43809;52.110;20.964;2023-03-21T04:56:31;25.10;;;13.23;;
58015;SDS011;43809;52.110;20.964;2023-03-21T04:58:35;27.60;;;13.65;;
58015;SDS011;43809;52.110;20.964;2023-03-21T05:00:35;25.40;;;12.70;;
58015;SDS011;43809;52.110;20.964;2023-03-21T05:02:37;23.35;;;11.38;;
58015;SDS011;43809;52.110;20.964;2023-03-21T05:04:37;24.42;;;11.82;;
58015;SDS011;43809;52.110;20.964;2023-03-21T05:06:38;27.58;;;12.40;;
58015;SDS011;43809;52.110;20.964;2023-03-21T05:08:41;27.63;;;13.02;;
58015;SDS011;43809;52.110;20.964;2023-03-21T05:10:41;25.30;;;12.90;;
58015;SDS011;43809;52.110;20.964;2023-03-21T05:12:41;25.58;;;13.43;;
58015;SDS011;43809;52.110;20.964;2023-03-21T05:14:42;22.73;;;11.55;;
58015;SDS011;43809;52.110;20.964;2023-03-21T05:16:42;22.45;;;11.57;;
58015;SDS011;43809;52.110;20.964;2023-03-21T05:18:53;23.10;;;12.27;;
58015;SDS011;43809;52.110;20.964;2023-03-21T05:20:54;24.90;;;12.80;;
58015;SDS011;43809;52.110;20.964;2023-03-21T05:22:55;26.27;;;12.63;;
58015;SDS011;43809;52.110;20.964;2023-03-21T05:24:56;23.23;;;12.48;;
58015;SDS011;43809;52.110;20.964;2023-03-21T05:26:56;26.75;;;11.63;;
58015;SDS011;43809;52.110;20.964;2023-03-21T05:29:01;20.88;;;10.95;;
58015;SDS011;43809;52.110;20.964;2023-03-21T05:31:02;23.13;;;11.40;;
58015;SDS011;43809;52.110;20.964;2023-03-21T05:33:02;25.50;;;12.38;;
58015;SDS011;43809;52.110;20.964;2023-03-21T05:35:03;23.40;;;12.30;;
58015;SDS011;43809;52.110;20.964;2023-03-21T05:37:03;22.08;;;11.68;;
58015;SDS011;43809;52.110;20.964;2023-03-21T05:39:03;25.08;;;10.93;;
58015;SDS011;43809;52.110;20.964;2023-03-21T05:41:04;24.80;;;12.05;;
58015;SDS011;43809;52.110;20.964;2023-03-21T05:43:04;21.98;;;11.18;;
58015;SDS011;43809;52.110;20.964;2023-03-21T05:45:05;20.67;;;10.90;;
58015;SDS011;43809;52.110;20.964;2023-03-21T05:47:05;21.35;;;11.82;;
58015;SDS011;43809;52.110;20.964;2023-03-21T05:49:06;25.02;;;12.55;;
58015;SDS011;43809;52.110;20.964;2023-03-21T05:51:06;21.63;;;11.75;;
58015;SDS011;43809;52.110;20.964;2023-03-21T05:53:06;22.13;;;11.57;;
58015;SDS011;43809;52.110;20.964;2023-03-21T05:55:06;21.65;;;11.68;;
58015;SDS011;43809;52.110;20.964;2023-03-21T05:57:07;20.08;;;10.52;;
58015;SDS011;43809;52.110;20.964;2023-03-21T05:59:07;20.52;;;10.90;;
58015;SDS011;43809;52.110;20.964;2023-03-21T06:01:07;23.85;;;12.27;;
58015;SDS011;43809;52.110;20.964;2023-03-21T06:03:07;20.50;;;11.18;;
58015;SDS011;43809;52.110;20.964;2023-03-21T06:05:08;21.80;;;11.65;;
58015;SDS011;43809;52.110;20.964;2023-03-21T06:07:08;24.92;;;13.23;;
58015;SDS011;43809;52.110;20.964;2023-03-21T06:09:08;27.52;;;12.98;;
58015;SDS011;43809;52.110;20.964;2023-03-21T06:11:12;23.85;;;12.88;;
58015;SDS011;43809;52.110;20.964;2023-03-21T06:13:18;26.20;;;14.15;;
58015;SDS011;43809;52.110;20.964;2023-03-21T06:15:18;25.95;;;13.05;;
58015;SDS011;43809;52.110;20.964;2023-03-21T06:17:18;26.98;;;13.30;;
58015;SDS011;43809;52.110;20.964;2023-03-21T06:19:19;24.65;;;13.15;;
58015;SDS011;43809;52.110;20.964;2023-03-21T06:21:20;22.95;;;12.13;;
58015;SDS011;43809;52.110;20.964;2023-03-21T06:23:20;30.20;;;13.75;;
58015;SDS011;43809;52.110;20.964;2023-03-21T06:25:20;25.13;;;13.43;;
58015;SDS011;43809;52.110;20.964;2023-03-21T06:27:21;23.90;;;12.98;;
58015;SDS011;43809;52.110;20.964;2023-03-21T06:29:21;24.48;;;13.43;;
58015;SDS011;43809;52.110;20.964;2023-03-21T06:31:22;27.10;;;13.27;;
58015;SDS011;43809;52.110;20.964;2023-03-21T06:33:24;24.08;;;11.75;;
58015;SDS011;43809;52.110;20.964;2023-03-21T06:35:24;21.30;;;11.98;;
58015;SDS011;43809;52.110;20.964;2023-03-21T06:37:25;23.60;;;12.90;;
58015;SDS011;43809;52.110;20.964;2023-03-21T06:39:28;22.30;;;12.00;;
58015;SDS011;43809;52.110;20.964;2023-03-21T06:41:30;21.20;;;10.17;;
58015;SDS011;43809;52.110;20.964;2023-03-21T06:43:30;21.83;;;11.20;;
58015;SDS011;43809;52.110;20.964;2023-03-21T06:45:31;20.17;;;10.98;;
58015;SDS011;43809;52.110;20.964;2023-03-21T06:47:31;20.27;;;11.05;;
58015;SDS011;43809;52.110;20.964;2023-03-21T06:49:31;25.58;;;12.27;;
58015;SDS011;43809;52.110;20.964;2023-03-21T06:51:31;21.70;;;11.38;;
58015;SDS011;43809;52.110;20.964;2023-03-21T06:53:32;24.55;;;12.35;;
58015;SDS011;43809;52.110;20.964;2023-03-21T06:55:32;24.23;;;12.50;;
58015;SDS011;43809;52.110;20.964;2023-03-21T06:57:32;22.75;;;12.48;;
58015;SDS011;43809;52.110;20.964;2023-03-21T06:59:32;22.50;;;11.57;;
58015;SDS011;43809;52.110;20.964;2023-03-21T07:01:33;20.80;;;11.18;;
58015;SDS011;43809;52.110;20.964;2023-03-21T07:03:33;23.20;;;11.95;;
58015;SDS011;43809;52.110;20.964;2023-03-21T07:05:34;20.13;;;11.05;;
58015;SDS011;43809;52.110;20.964;2023-03-21T07:07:34;19.55;;;10.55;;
58015;SDS011;43809;52.110;20.964;2023-03-21T07:09:35;21.35;;;11.30;;
58015;SDS011;43809;52.110;20.964;2023-03-21T07:11:36;25.65;;;13.60;;
58015;SDS011;43809;52.110;20.964;2023-03-21T07:13:36;25.13;;;13.70;;
58015;SDS011;43809;52.110;20.964;2023-03-21T07:15:36;26.92;;;14.15;;
58015;SDS011;43809;52.110;20.964;2023-03-21T07:17:40;24.50;;;13.15;;
58015;SDS011;43809;52.110;20.964;2023-03-21T07:19:40;21.60;;;11.93;;
58015;SDS011;43809;52.110;20.964;2023-03-21T07:21:40;21.45;;;12.38;;
58015;SDS011;43809;52.110;20.964;2023-03-21T07:23:40;22.10;;;12.05;;
58015;SDS011;43809;52.110;20.964;2023-03-21T07:25:41;20.80;;;11.40;;
58015;SDS011;43809;52.110;20.964;2023-03-21T07:27:41;25.23;;;13.77;;
58015;SDS011;43809;52.110;20.964;2023-03-21T07:29:41;28.45;;;14.35;;
58015;SDS011;43809;52.110;20.964;2023-03-21T07:31:42;22.25;;;12.60;;
58015;SDS011;43809;52.110;20.964;2023-03-21T07:33:44;25.98;;;14.23;;
58015;SDS011;43809;52.110;20.964;2023-03-21T07:35:44;23.15;;;12.55;;
58015;SDS011;43809;52.110;20.964;2023-03-21T07:37:45;25.10;;;14.00;;
58015;SDS011;43809;52.110;20.964;2023-03-21T07:39:45;22.67;;;12.90;;
58015;SDS011;43809;52.110;20.964;2023-03-21T07:41:45;22.05;;;12.75;;
58015;SDS011;43809;52.110;20.964;2023-03-21T07:43:45;22.38;;;12.48;;
58015;SDS011;43809;52.110;20.964;2023-03-21T07:45:46;23.17;;;13.07;;
58015;SDS011;43809;52.110;20.964;2023-03-21T07:47:47;22.20;;;12.75;;
58015;SDS011;43809;52.110;20.964;2023-03-21T07:49:47;17.92;;;10.63;;
58015;SDS011;43809;52.110;20.964;2023-03-21T07:51:47;18.83;;;11.03;;
58015;SDS011;43809;52.110;20.964;2023-03-21T07:53:47;18.67;;;10.07;;
58015;SDS011;43809;52.110;20.964;2023-03-21T07:55:49;19.45;;;10.80;;
58015;SDS011;43809;52.110;20.964;2023-03-21T07:57:49;19.10;;;11.10;;
58015;SDS011;43809;52.110;20.964;2023-03-21T07:59:53;20.65;;;12.00;;
58015;SDS011;43809;52.110;20.964;2023-03-21T08:01:53;18.40;;;10.68;;
58015;SDS011;43809;52.110;20.964;2023-03-21T08:03:54;19.17;;;10.90;;
58015;SDS011;43809;52.110;20.964;2023-03-21T08:05:54;21.45;;;11.77;;
58015;SDS011;43809;52.110;20.964;2023-03-21T08:07:55;23.83;;;12.98;;
58015;SDS011;43809;52.110;20.964;2023-03-21T08:09:55;19.73;;;11.68;;
58015;SDS011;43809;52.110;20.964;2023-03-21T08:11:56;17.13;;;10.65;;
58015;SDS011;43809;52.110;20.964;2023-03-21T08:13:56;19.53;;;10.53;;
58015;SDS011;43809;52.110;20.964;2023-03-21T08:15:57;19.08;;;10.88;;
58015;SDS011;43809;52.110;20.964;2023-03-21T08:17:57;18.00;;;10.60;;
58015;SDS011;43809;52.110;20.964;2023-03-21T08:19:58;16.13;;;9.25;;
58015;SDS011;43809;52.110;20.964;2023-03-21T08:21:58;16.08;;;9.60;;
58015;SDS011;43809;52.110;20.964;2023-03-21T08:23:58;14.55;;;9.55;;
58015;SDS011;43809;52.110;20.964;2023-03-21T08:25:59;17.33;;;9.93;;
58015;SDS011;43809;52.110;20.964;2023-03-21T08:28:00;16.80;;;9.48;;
58015;SDS011;43809;52.110;20.964;2023-03-21T08:30:00;14.70;;;8.52;;
58015;SDS011;43809;52.110;20.964;2023-03-21T08:32:01;15.25;;;9.43;;
58015;SDS011;43809;52.110;20.964;2023-03-21T08:34:01;16.17;;;9.70;;
58015;SDS011;43809;52.110;20.964;2023-03-21T08:36:01;16.60;;;9.02;;
58015;SDS011;43809;52.110;20.964;2023-03-21T08:38:02;14.73;;;8.93;;
58015;SDS011;43809;52.110;20.964;2023-03-21T08:40:03;13.15;;;8.25;;
58015;SDS011;43809;52.110;20.964;2023-03-21T08:42:07;13.77;;;8.02;;
58015;SDS011;43809;52.110;20.964;2023-03-21T08:44:07;13.25;;;7.68;;
58015;SDS011;43809;52.110;20.964;2023-03-21T08:46:08;15.15;;;8.45;;
58015;SDS011;43809;52.110;20.964;2023-03-21T08:48:08;13.27;;;8.10;;
58015;SDS011;43809;52.110;20.964;2023-03-21T08:50:09;14.07;;;7.35;;
58015;SDS011;43809;52.110;20.964;2023-03-21T08:52:10;11.40;;;7.20;;
58015;SDS011;43809;52.110;20.964;2023-03-21T08:54:20;11.02;;;7.25;;
58015;SDS011;43809;52.110;20.964;2023-03-21T08:56:20;12.88;;;8.60;;
58015;SDS011;43809;52.110;20.964;2023-03-21T08:58:21;15.37;;;9.33;;
58015;SDS011;43809;52.110;20.964;2023-03-21T09:00:21;14.32;;;9.00;;
58015;SDS011;43809;52.110;20.964;2023-03-21T09:02:21;15.55;;;9.48;;
58015;SDS011;43809;52.110;20.964;2023-03-21T09:04:22;15.43;;;10.23;;
58015;SDS011;43809;52.110;20.964;2023-03-21T09:06:24;15.73;;;9.70;;
58015;SDS011;43809;52.110;20.964;2023-03-21T09:08:26;13.73;;;9.23;;
58015;SDS011;43809;52.110;20.964;2023-03-21T09:10:26;13.00;;;8.63;;
58015;SDS011;43809;52.110;20.964;2023-03-21T09:12:27;13.00;;;8.65;;
58015;SDS011;43809;52.110;20.964;2023-03-21T09:14:27;14.10;;;9.07;;
58015;SDS011;43809;52.110;20.964;2023-03-21T09:16:27;12.93;;;8.68;;
58015;SDS011;43809;52.110;20.964;2023-03-21T09:18:27;13.05;;;8.50;;
58015;SDS011;43809;52.110;20.964;2023-03-21T09:20:46;12.82;;;8.43;;
58015;SDS011;43809;52.110;20.964;2023-03-21T09:22:47;11.90;;;8.40;;
58015;SDS011;43809;52.110;20.964;2023-03-21T09:24:48;12.63;;;8.13;;
58015;SDS011;43809;52.110;20.964;2023-03-21T09:26:49;11.07;;;7.90;;
58015;SDS011;43809;52.110;20.964;2023-03-21T09:28:50;11.30;;;7.72;;
58015;SDS011;43809;52.110;20.964;2023-03-21T09:30:52;10.00;;;6.68;;
58015;SDS011;43809;52.110;20.964;2023-03-21T09:32:54;10.43;;;7.32;;
58015;SDS011;43809;52.110;20.964;2023-03-21T09:34:54;10.70;;;7.25;;
58015;SDS011;43809;52.110;20.964;2023-03-21T09:36:56;11.33;;;7.77;;
58015;SDS011;43809;52.110;20.964;2023-03-21T09:38:56;11.13;;;7.45;;
58015;SDS011;43809;52.110;20.964;2023-03-21T09:45:20;10.38;;;6.90;;
58015;SDS011;43809;52.110;20.964;2023-03-21T09:47:26;11.57;;;7.38;;
58015;SDS011;43809;52.110;20.964;2023-03-21T09:49:34;10.68;;;7.57;;
58015;SDS011;43809;52.110;20.964;2023-03-21T09:51:40;11.68;;;7.47;;
58015;SDS011;43809;52.110;20.964;2023-03-21T09:53:45;11.80;;;7.60;;
58015;SDS011;43809;52.110;20.964;2023-03-21T09:57:49;8.68;;;6.10;;
58015;SDS011;43809;52.110;20.964;2023-03-21T09:59:52;12.45;;;7.75;;
58015;SDS011;43809;52.110;20.964;2023-03-21T10:01:53;11.60;;;7.87;;
58015;SDS011;43809;52.110;20.964;2023-03-21T10:03:56;10.02;;;7.13;;
58015;SDS011;43809;52.110;20.964;2023-03-21T10:05:59;10.05;;;7.10;;
58015;SDS011;43809;52.110;20.964;2023-03-21T10:08:07;10.25;;;7.32;;
58015;SDS011;43809;52.110;20.964;2023-03-21T10:10:13;11.55;;;7.55;;
58015;SDS011;43809;52.110;20.964;2023-03-21T10:12:17;10.60;;;7.00;;
58015;SDS011;43809;52.110;20.964;2023-03-21T10:14:32;10.05;;;7.32;;
58015;SDS011;43809;52.110;20.964;2023-03-21T10:16:34;9.65;;;6.85;;
58015;SDS011;43809;52.110;20.964;2023-03-21T10:18:36;10.75;;;7.13;;
58015;SDS011;43809;52.110;20.964;2023-03-21T10:20:37;10.32;;;6.28;;
58015;SDS011;43809;52.110;20.964;2023-03-21T10:22:37;9.93;;;6.35;;
58015;SDS011;43809;52.110;20.964;2023-03-21T10:24:37;8.65;;;5.95;;
58015;SDS011;43809;52.110;20.964;2023-03-21T10:26:38;11.52;;;6.55;;
58015;SDS011;43809;52.110;20.964;2023-03-21T10:28:39;10.75;;;6.28;;
58015;SDS011;43809;52.110;20.964;2023-03-21T10:30:44;8.25;;;5.28;;
58015;SDS011;43809;52.110;20.964;2023-03-21T10:32:45;7.88;;;5.22;;
58015;SDS011;43809;52.110;20.964;2023-03-21T10:34:47;8.07;;;4.95;;
58015;SDS011;43809;52.110;20.964;2023-03-21T10:36:48;7.40;;;4.68;;
58015;SDS011;43809;52.110;20.964;2023-03-21T10:38:52;7.97;;;5.03;;
58015;SDS011;43809;52.110;20.964;2023-03-21T10:40:53;7.65;;;5.13;;
58015;SDS011;43809;52.110;20.964;2023-03-21T10:42:56;7.40;;;4.82;;
58015;SDS011;43809;52.110;20.964;2023-03-21T10:45:14;10.68;;;6.45;;
58015;SDS011;43809;52.110;20.964;2023-03-21T10:47:25;11.93;;;7.43;;
58015;SDS011;43809;52.110;20.964;2023-03-21T10:49:26;12.30;;;7.03;;
58015;SDS011;43809;52.110;20.964;2023-03-21T10:51:32;12.65;;;7.18;;
58015;SDS011;43809;52.110;20.964;2023-03-21T10:53:36;11.90;;;7.50;;
58015;SDS011;43809;52.110;20.964;2023-03-21T10:57:37;9.82;;;6.00;;
58015;SDS011;43809;52.110;20.964;2023-03-21T10:59:44;10.75;;;6.30;;
58015;SDS011;43809;52.110;20.964;2023-03-21T11:01:47;11.10;;;6.82;;
58015;SDS011;43809;52.110;20.964;2023-03-21T11:05:52;8.93;;;5.47;;
58015;SDS011;43809;52.110;20.964;2023-03-21T11:07:55;7.10;;;4.70;;
58015;SDS011;43809;52.110;20.964;2023-03-21T11:09:57;7.68;;;4.80;;
58015;SDS011;43809;52.110;20.964;2023-03-21T11:12:02;9.17;;;5.43;;
58015;SDS011;43809;52.110;20.964;2023-03-21T11:14:04;7.95;;;5.05;;
58015;SDS011;43809;52.110;20.964;2023-03-21T11:16:22;10.00;;;5.57;;
58015;SDS011;43809;52.110;20.964;2023-03-21T11:18:26;9.38;;;5.13;;
58015;SDS011;43809;52.110;20.964;2023-03-21T11:20:29;7.45;;;4.80;;
58015;SDS011;43809;52.110;20.964;2023-03-21T11:22:36;7.75;;;4.88;;
58015;SDS011;43809;52.110;20.964;2023-03-21T11:24:37;7.97;;;4.35;;
58015;SDS011;43809;52.110;20.964;2023-03-21T11:26:38;6.78;;;4.40;;
58015;SDS011;43809;52.110;20.964;2023-03-21T11:28:42;8.88;;;5.60;;
58015;SDS011;43809;52.110;20.964;2023-03-21T11:30:55;9.73;;;5.38;;
58015;SDS011;43809;52.110;20.964;2023-03-21T11:32:57;11.60;;;6.60;;
58015;SDS011;43809;52.110;20.964;2023-03-21T11:34:58;9.43;;;6.32;;
58015;SDS011;43809;52.110;20.964;2023-03-21T11:37:00;8.82;;;5.95;;
58015;SDS011;43809;52.110;20.964;2023-03-21T11:39:11;11.15;;;7.05;;
58015;SDS011;43809;52.110;20.964;2023-03-21T11:41:33;11.45;;;7.10;;
58015;SDS011;43809;52.110;20.964;2023-03-21T11:43:36;10.02;;;6.78;;
58015;SDS011;43809;52.110;20.964;2023-03-21T11:45:37;11.77;;;6.63;;
58015;SDS011;43809;52.110;20.964;2023-03-21T11:47:58;12.30;;;7.15;;
58015;SDS011;43809;52.110;20.964;2023-03-21T11:49:59;9.23;;;6.03;;
58015;SDS011;43809;52.110;20.964;2023-03-21T11:56:25;9.13;;;5.72;;
58015;SDS011;43809;52.110;20.964;2023-03-21T12:00:38;8.50;;;5.53;;
58015;SDS011;43809;52.110;20.964;2023-03-21T12:05:09;6.75;;;4.43;;
58015;SDS011;43809;52.110;20.964;2023-03-21T12:09:28;6.05;;;4.40;;
58015;SDS011;43809;52.110;20.964;2023-03-21T12:11:44;7.35;;;4.60;;
58015;SDS011;43809;52.110;20.964;2023-03-21T12:16:26;6.70;;;4.50;;
58015;SDS011;43809;52.110;20.964;2023-03-21T12:18:36;6.97;;;4.78;;
58015;SDS011;43809;52.110;20.964;2023-03-21T12:20:43;9.23;;;5.50;;
58015;SDS011;43809;52.110;20.964;2023-03-21T12:24:50;8.10;;;5.50;;
58015;SDS011;43809;52.110;20.964;2023-03-21T12:27:01;6.93;;;4.47;;
58015;SDS011;43809;52.110;20.964;2023-03-21T12:29:17;7.07;;;4.55;;
58015;SDS011;43809;52.110;20.964;2023-03-21T12:31:27;6.70;;;4.22;;
58015;SDS011;43809;52.110;20.964;2023-03-21T12:40:01;7.28;;;4.55;;
58015;SDS011;43809;52.110;20.964;2023-03-21T12:44:12;7.18;;;4.72;;
58015;SDS011;43809;52.110;20.964;2023-03-21T12:46:23;6.30;;;4.40;;
58015;SDS011;43809;52.110;20.964;2023-03-21T12:48:29;7.47;;;4.63;;
58015;SDS011;43809;52.110;20.964;2023-03-21T12:50:33;7.47;;;4.32;;
58015;SDS011;43809;52.110;20.964;2023-03-21T12:52:38;6.75;;;4.03;;
58015;SDS011;43809;52.110;20.964;2023-03-21T12:56:43;6.47;;;4.05;;
58015;SDS011;43809;52.110;20.964;2023-03-21T12:58:53;5.25;;;3.60;;
58015;SDS011;43809;52.110;20.964;2023-03-21T13:00:57;6.60;;;4.50;;
58015;SDS011;43809;52.110;20.964;2023-03-21T13:03:05;8.43;;;5.10;;
58015;SDS011;43809;52.110;20.964;2023-03-21T13:07:16;8.25;;;4.88;;
58015;SDS011;43809;52.110;20.964;2023-03-21T13:09:26;5.88;;;4.80;;
58015;SDS011;43809;52.110;20.964;2023-03-21T13:11:29;6.32;;;4.28;;
58015;SDS011;43809;52.110;20.964;2023-03-21T13:15:51;7.50;;;4.43;;
58015;SDS011;43809;52.110;20.964;2023-03-21T13:19:55;6.50;;;4.25;;